Time;durP1;ratioP1;P1;durP2;ratioP2;P2;SDS_P1;SDS_P2;PMS_P1;PMS_P2;Temp;Humidity;BMP_temperature;BMP_pressure;BME280_temperature;BME280_humidity;BME280_pressure;Samples;Min_cycle;Max_cycle;Signal;HPM_P1;HPM_P2
2022/11/13 00:01:23;;;;;;;;;37.80;32.40;;;;;12.53;63.41;100304.38;6174640;28;96397;-67
2022/11/13 00:04:45;;;;;;;;;33.80;30.00;;;;;12.51;63.26;100300.22;6184169;28;97022;-68
2022/11/13 00:08:07;;;;;;;;;36.00;31.75;;;;;12.56;63.34;100308.53;6169310;28;96284;-67
2022/11/13 00:11:28;;;;;;;;;42.50;33.00;;;;;12.68;63.23;100311.53;6185674;28;96284;-68
2022/11/13 00:14:52;;;;;;;;;38.20;32.80;;;;;12.74;62.91;100308.84;6167587;28;96642;-67
2022/11/13 00:18:14;;;;;;;;;34.40;30.00;;;;;12.81;62.27;100309.69;6172294;28;96403;-66
2022/11/13 00:21:36;;;;;;;;;34.00;29.00;;;;;12.80;62.02;100297.22;6176856;28;96521;-66
2022/11/13 00:24:59;;;;;;;;;36.40;30.00;;;;;12.61;63.01;100294.44;6176675;28;97797;-68
2022/11/13 00:28:21;;;;;;;;;35.60;30.00;;;;;12.54;62.59;100292.53;6170136;28;97552;-68
2022/11/13 00:31:44;;;;;;;;;32.25;26.00;;;;;12.67;62.58;100299.03;6179144;28;96902;-67
2022/11/13 00:35:07;;;;;;;;;35.60;29.60;;;;;12.76;62.13;100290.53;6172505;28;96945;-69
2022/11/13 00:38:29;;;;;;;;;33.00;29.60;;;;;12.82;62.35;100289.72;6183948;28;96412;-68
2022/11/13 00:41:51;;;;;;;;;34.25;29.00;;;;;12.87;62.00;100297.22;6168798;28;96465;-66
2022/11/13 00:45:13;;;;;;;;;29.40;27.00;;;;;12.82;62.06;100300.56;6183263;28;97061;-67
2022/11/13 00:48:37;;;;;;;;;33.75;30.00;;;;;12.47;62.83;100280.81;6165093;28;97029;-67
2022/11/13 00:52:01;;;;;;;;;34.00;30.00;;;;;12.63;62.45;100292.34;6186334;28;96328;-67
2022/11/13 00:55:23;;;;;;;;;30.60;26.40;;;;;12.68;62.31;100287.16;6182626;28;96878;-68
2022/11/13 00:58:45;;;;;;;;;31.67;28.00;;;;;12.51;62.88;100289.38;6176426;28;96350;-67
2022/11/13 01:02:08;;;;;;;;;39.80;31.20;;;;;12.61;62.39;100278.19;6165129;28;96738;-66
2022/11/13 01:05:36;;;;;;;;;34.40;30.00;;;;;12.63;62.58;100271.53;6186225;28;98361;-67
2022/11/13 01:08:59;;;;;;;;;36.20;30.00;;;;;12.64;62.15;100275.91;6186913;28;96270;-67
2022/11/13 01:12:21;;;;;;;;;34.80;30.20;;;;;12.51;62.81;100268.56;6171266;28;96309;-67
2022/11/13 01:15:44;;;;;;;;;36.50;30.00;;;;;12.49;62.88;100264.41;6186159;28;96419;-67
2022/11/13 01:19:07;;;;;;;;;37.00;31.20;;;;;12.50;62.53;100266.91;6169350;28;97618;-67
2022/11/13 01:22:30;;;;;;;;;38.00;30.40;;;;;12.41;62.72;100270.78;6188607;28;96324;-68
2022/11/13 01:25:53;;;;;;;;;35.00;30.00;;;;;12.35;62.93;100265.38;6188328;28;97751;-68
2022/11/13 01:29:15;;;;;;;;;41.80;33.20;;;;;12.31;62.82;100254.13;6177867;28;96475;-67
2022/11/13 01:32:37;;;;;;;;;37.25;32.00;;;;;12.47;62.82;100270.00;6171249;28;96499;-68
2022/11/13 01:36:03;;;;;;;;;36.00;30.60;;;;;12.50;62.82;100263.38;6183843;28;98620;-68
2022/11/13 01:39:27;;;;;;;;;35.80;31.00;;;;;12.51;63.14;100263.13;6178852;28;96699;-67
2022/11/13 01:42:49;;;;;;;;;37.60;31.20;;;;;12.58;62.78;100261.31;6147692;28;97659;-68
2022/11/13 01:46:19;;;;;;;;;37.60;30.00;;;;;12.67;62.51;100256.56;6187538;28;96422;-68
2022/11/13 01:49:42;;;;;;;;;42.00;33.00;;;;;12.76;62.37;100259.91;6163639;28;97272;-67
2022/11/13 01:53:05;;;;;;;;;37.00;30.60;;;;;12.80;62.18;100259.34;6174795;28;96421;-70
2022/11/13 01:56:29;;;;;;;;;41.00;33.00;;;;;12.78;61.94;100255.16;6180700;28;96296;-68
2022/11/13 01:59:55;;;;;;;;;37.80;32.40;;;;;12.79;61.58;100252.25;6178540;28;96299;-67
2022/11/13 02:03:16;;;;;;;;;39.00;32.00;;;;;12.81;61.62;100252.88;6175347;28;96671;-67
2022/11/13 02:06:42;;;;;;;;;36.80;30.00;;;;;12.80;61.29;100253.09;6188174;28;96406;-67
2022/11/13 02:10:05;;;;;;;;;35.00;30.60;;;;;12.79;61.46;100238.72;6150560;28;96692;-66
2022/11/13 02:13:28;;;;;;;;;35.40;30.40;;;;;12.71;61.76;100243.44;6182524;28;98080;-67
2022/11/13 02:16:55;;;;;;;;;37.20;31.60;;;;;12.68;61.76;100236.59;6187201;28;96977;-67
2022/11/13 02:20:25;;;;;;;;;38.40;32.00;;;;;12.73;61.83;100241.41;6162734;28;96789;-68
2022/11/13 02:23:53;;;;;;;;;41.00;31.60;;;;;12.69;61.81;100240.13;6183528;28;96387;-67
2022/11/13 02:27:23;;;;;;;;;35.00;29.40;;;;;12.30;63.11;100228.09;6173347;28;97628;-67
2022/11/13 02:30:45;;;;;;;;;36.00;30.00;;;;;12.39;63.04;100248.53;6187303;28;97582;-68
2022/11/13 02:34:08;;;;;;;;;40.20;31.40;;;;;12.47;62.93;100242.09;6185386;28;96631;-66
2022/11/13 02:37:30;;;;;;;;;43.20;33.20;;;;;12.48;63.00;100239.22;6184420;28;96383;-67
2022/11/13 02:40:52;;;;;;;;;38.50;32.00;;;;;12.33;63.57;100243.91;6176854;28;96306;-67
2022/11/13 02:44:15;;;;;;;;;36.40;30.60;;;;;12.37;63.68;100238.94;6178134;28;96885;-67
2022/11/13 02:47:37;;;;;;;;;43.60;33.00;;;;;12.39;63.27;100240.41;6186956;28;96615;-67
2022/11/13 02:50:59;;;;;;;;;35.00;29.50;;;;;12.42;63.19;100228.34;6174490;28;96382;-67
2022/11/13 02:54:21;;;;;;;;;36.80;30.80;;;;;12.57;63.02;100237.16;6180027;28;98191;-66
2022/11/13 02:57:42;;;;;;;;;39.00;32.00;;;;;12.64;62.68;100238.03;6171660;28;96754;-66
2022/11/13 03:01:06;;;;;;;;;35.20;30.20;;;;;12.71;62.37;100243.44;6187331;28;97078;-66
2022/11/13 03:04:28;;;;;;;;;45.00;34.40;;;;;12.73;62.08;100247.63;6184520;28;96983;-67
2022/11/13 03:08:10;;;;;;;;;39.00;30.00;;;;;12.54;62.68;100240.28;6186359;28;96311;-67
2022/11/13 03:11:32;;;;;;;;;38.50;30.00;;;;;12.42;63.29;100234.59;6187355;28;97238;-67
2022/11/13 03:14:54;;;;;;;;;36.40;30.40;;;;;12.30;63.64;100247.03;6177954;28;96716;-67
2022/11/13 03:18:17;;;;;;;;;39.50;32.00;;;;;12.20;63.87;100249.25;6178116;28;96387;-67
2022/11/13 03:21:39;;;;;;;;;39.00;33.00;;;;;12.24;64.02;100247.00;6161730;28;96705;-66
2022/11/13 03:25:01;;;;;;;;;37.60;30.00;;;;;12.20;64.07;100245.72;6175404;28;96456;-66
2022/11/13 03:28:31;;;;;;;;;36.75;30.50;;;;;12.06;64.54;100245.66;6186990;28;96637;-67
2022/11/13 03:31:53;;;;;;;;;37.00;31.40;;;;;12.12;64.32;100249.41;6168767;28;96904;-67
2022/11/13 03:35:16;;;;;;;;;34.25;30.00;;;;;12.18;64.13;100256.72;6182617;28;96396;-67
2022/11/13 03:38:39;;;;;;;;;35.20;31.80;;;;;12.28;64.01;100262.59;6171876;28;98118;-67
2022/11/13 03:42:01;;;;;;;;;38.75;30.25;;;;;12.36;63.61;100265.19;6183188;28;96785;-67
2022/11/13 03:45:23;;;;;;;;;36.50;30.00;;;;;12.45;63.24;100261.25;6177947;28;96935;-67
2022/11/13 03:48:44;;;;;;;;;39.60;31.80;;;;;12.48;62.72;100260.84;6186786;28;96541;-69
2022/11/13 03:52:08;;;;;;;;;42.60;33.00;;;;;12.48;63.24;100266.25;6187295;28;96483;-67
2022/11/13 03:55:29;;;;;;;;;39.40;32.00;;;;;12.25;63.65;100254.91;6185643;28;96689;-66
2022/11/13 03:58:51;;;;;;;;;39.00;30.50;;;;;12.25;64.01;100260.31;6172975;28;96476;-66
2022/11/13 04:02:13;;;;;;;;;37.75;31.75;;;;;12.14;64.31;100264.41;6187315;28;96339;-68
2022/11/13 04:05:36;;;;;;;;;34.00;30.00;;;;;12.17;64.28;100255.03;6184223;28;97579;-66
2022/11/13 04:08:59;;;;;;;;;39.75;32.00;;;;;12.25;64.01;100254.06;6174062;28;96280;-67
2022/11/13 04:12:21;;;;;;;;;38.00;31.60;;;;;12.31;63.99;100250.56;6185817;28;97662;-66
2022/11/13 04:15:43;;;;;;;;;38.00;32.50;;;;;12.35;63.86;100255.38;6184961;28;96470;-68
2022/11/13 04:19:05;;;;;;;;;32.50;29.00;;;;;12.38;63.46;100252.28;6169212;28;96719;-68
2022/11/13 04:22:27;;;;;;;;;37.00;31.50;;;;;12.38;63.86;100259.53;6187789;28;96450;-68
2022/11/13 04:25:50;;;;;;;;;38.00;32.25;;;;;12.31;63.71;100259.53;6187761;28;96483;-68
2022/11/13 04:29:12;;;;;;;;;39.80;32.80;;;;;12.25;63.93;100254.91;6186210;28;96383;-67
2022/11/13 04:32:33;;;;;;;;;36.00;30.00;;;;;12.01;65.04;100261.63;6181965;28;98120;-68
2022/11/13 04:35:55;;;;;;;;;36.00;30.25;;;;;12.10;64.47;100251.50;6189881;28;96624;-68
2022/11/13 04:39:17;;;;;;;;;43.20;32.20;;;;;12.12;64.67;100247.53;6190585;28;96439;-68
2022/11/13 04:42:51;;;;;;;;;40.20;32.60;;;;;12.03;64.97;100254.13;6171717;28;97890;-67
2022/11/13 04:46:13;;;;;;;;;35.00;30.00;;;;;12.11;64.33;100256.69;6182436;28;96324;-67
2022/11/13 04:49:35;;;;;;;;;32.50;29.50;;;;;11.92;64.99;100249.28;6182517;28;97312;-68
2022/11/13 04:52:57;;;;;;;;;32.40;30.00;;;;;12.03;64.82;100251.44;6181798;28;96509;-67
2022/11/13 04:56:19;;;;;;;;;35.25;29.75;;;;;12.06;64.82;100248.34;6188583;28;96381;-67
2022/11/13 04:59:42;;;;;;;;;34.00;30.00;;;;;12.03;64.92;100245.19;6174046;28;96842;-66
2022/11/13 05:03:04;;;;;;;;;45.00;33.00;;;;;12.04;65.02;100246.88;6190223;28;96292;-66
2022/11/13 05:06:26;;;;;;;;;41.20;31.20;;;;;12.10;65.01;100251.50;6186986;28;96410;-67
2022/11/13 05:09:48;;;;;;;;;39.00;32.00;;;;;12.02;65.17;100243.53;6190214;28;96265;-69
2022/11/13 05:13:10;;;;;;;;;38.20;31.20;;;;;12.02;65.10;100241.66;6183469;28;97620;-67
2022/11/13 05:16:35;;;;;;;;;35.00;30.00;;;;;11.98;65.34;100242.25;6177305;28;96271;-67
2022/11/13 05:19:57;;;;;;;;;39.00;30.00;;;;;11.97;65.28;100254.13;6173822;28;96536;-68
2022/11/13 05:23:19;;;;;;;;;39.00;31.40;;;;;11.99;65.31;100247.47;6179369;28;96544;-67
2022/11/13 05:26:42;;;;;;;;;34.60;29.80;;;;;12.07;65.07;100255.41;6179671;28;97020;-68
2022/11/13 05:30:04;;;;;;;;;35.50;27.00;;;;;11.92;65.81;100243.06;6181188;28;96819;-67
2022/11/13 05:33:29;;;;;;;;;33.00;30.00;;;;;11.96;65.15;100247.88;6182124;28;96625;-67
2022/11/13 05:36:52;;;;;;;;;37.80;30.40;;;;;11.93;65.28;100245.53;6188796;28;96858;-64
2022/11/13 05:40:13;;;;;;;;;28.80;27.20;;;;;12.01;65.03;100252.69;6189031;28;96395;-68
2022/11/13 05:43:36;;;;;;;;;37.00;31.50;;;;;11.99;65.06;100255.56;6188173;28;96692;-67
2022/11/13 05:46:58;;;;;;;;;31.00;29.00;;;;;11.73;66.14;100246.44;6176295;28;96375;-68
2022/11/13 05:50:22;;;;;;;;;38.00;30.00;;;;;11.74;65.89;100251.63;6172390;28;96367;-67
2022/11/13 05:53:44;;;;;;;;;38.40;29.80;;;;;11.66;66.05;100236.38;6184613;28;97083;-68
2022/11/13 05:57:06;;;;;;;;;34.50;29.50;;;;;11.78;65.84;100252.09;6176861;28;96444;-67
2022/11/13 06:00:28;;;;;;;;;33.60;29.00;;;;;11.87;65.54;100242.81;6166980;28;97198;-67
2022/11/13 06:03:50;;;;;;;;;34.40;29.80;;;;;11.83;65.47;100236.09;6184331;28;96294;-67
2022/11/13 06:07:14;;;;;;;;;38.25;32.50;;;;;11.69;66.35;100254.06;6173408;28;96427;-68
2022/11/13 06:10:35;;;;;;;;;36.75;30.75;;;;;11.77;66.09;100242.31;6172147;28;96511;-67
2022/11/13 06:13:59;;;;;;;;;34.00;30.00;;;;;11.73;66.33;100246.44;6182939;28;96565;-67
2022/11/13 06:17:21;;;;;;;;;30.20;24.60;;;;;11.64;65.96;100240.31;6172496;28;96443;-66
2022/11/13 06:20:43;;;;;;;;;28.80;26.00;;;;;11.65;66.22;100250.09;6186871;28;96917;-67
2022/11/13 06:24:08;;;;;;;;;29.60;25.00;;;;;11.45;66.52;100247.22;6187371;28;96463;-67
2022/11/13 06:27:29;;;;;;;;;28.50;26.50;;;;;11.26;66.44;100232.50;6187878;28;97046;-68
2022/11/13 06:30:51;;;;;;;;;28.50;21.00;;;;;11.24;66.96;100236.41;6188304;28;96685;-66
2022/11/13 06:34:13;;;;;;;;;27.00;25.00;;;;;11.29;67.03;100236.66;6187700;28;96267;-67
2022/11/13 06:37:35;;;;;;;;;26.40;24.00;;;;;11.20;67.38;100240.53;6188369;28;98095;-67
2022/11/13 06:40:58;;;;;;;;;27.00;23.50;;;;;11.35;67.05;100246.69;6188384;28;96458;-67
2022/11/13 06:44:20;;;;;;;;;26.40;24.40;;;;;11.32;66.36;100251.66;6186197;28;96415;-66
2022/11/13 06:47:42;;;;;;;;;25.00;23.00;;;;;11.30;65.75;100249.13;6186539;28;96658;-69
2022/11/13 06:51:06;;;;;;;;;26.00;22.00;;;;;11.32;65.76;100240.84;6187987;28;96214;-67
2022/11/13 06:54:28;;;;;;;;;28.60;24.00;;;;;11.39;65.52;100241.75;6186523;28;96540;-69
2022/11/13 06:57:51;;;;;;;;;24.00;21.00;;;;;11.40;64.74;100246.97;6186085;28;96400;-68
2022/11/13 07:01:19;;;;;;;;;25.60;22.00;;;;;11.42;64.57;100247.59;6188196;28;96473;-68
2022/11/13 07:04:41;;;;;;;;;23.60;20.60;;;;;11.55;64.87;100252.28;6185131;28;96351;-68
2022/11/13 07:08:02;;;;;;;;;27.60;24.60;;;;;11.59;64.94;100254.41;6186476;28;97492;-66
2022/11/13 07:11:24;;;;;;;;;28.40;25.40;;;;;11.62;64.81;100242.38;6187395;28;96436;-66
2022/11/13 07:14:47;;;;;;;;;28.00;22.00;;;;;11.73;64.57;100236.44;6172847;28;96784;-67
2022/11/13 07:18:09;;;;;;;;;30.00;26.40;;;;;11.82;63.98;100232.59;6182483;28;96519;-67
2022/11/13 07:21:31;;;;;;;;;24.20;22.20;;;;;11.55;63.36;100169.38;6176996;28;97343;-66
2022/11/13 07:24:52;;;;;;;;;21.40;18.00;;;;;11.96;63.32;100220.84;6167125;28;96957;-68
2022/11/13 07:28:15;;;;;;;;;24.80;22.20;;;;;11.97;62.79;100222.47;6176483;28;97917;-66
2022/11/13 07:31:38;;;;;;;;;26.20;21.20;;;;;11.96;62.38;100201.09;6174153;28;96304;-67
2022/11/13 07:35:00;;;;;;;;;26.60;24.00;;;;;11.89;62.07;100228.06;6186431;28;97012;-67
2022/11/13 07:38:22;;;;;;;;;25.00;23.00;;;;;11.79;61.90;100227.56;6177639;28;96904;-66
2022/11/13 07:41:44;;;;;;;;;28.00;23.75;;;;;11.78;62.47;100231.28;6181553;28;96520;-67
2022/11/13 07:45:07;;;;;;;;;29.80;27.60;;;;;11.72;62.17;100223.97;6173831;28;96914;-67
2022/11/13 07:48:30;;;;;;;;;29.00;24.60;;;;;11.78;61.82;100225.09;6185771;28;96299;-67
2022/11/13 07:51:53;;;;;;;;;24.00;21.00;;;;;11.76;62.39;100232.53;6156110;28;96972;-69
2022/11/13 07:55:15;;;;;;;;;27.20;23.00;;;;;11.83;61.81;100234.25;6168404;28;96456;-68
2022/11/13 07:58:36;;;;;;;;;24.40;21.00;;;;;11.84;61.90;100244.03;6152161;28;97203;-68
2022/11/13 08:01:58;;;;;;;;;26.60;23.60;;;;;11.70;62.26;100247.63;6186969;28;96321;-68
2022/11/13 08:05:22;;;;;;;;;27.50;26.50;;;;;11.68;62.50;100250.50;6184850;28;96351;-67
2022/11/13 08:08:47;;;;;;;;;27.67;24.00;;;;;11.33;64.62;100243.38;6183203;28;96730;-68
2022/11/13 08:12:09;;;;;;;;;27.00;24.50;;;;;11.43;64.28;100240.34;6185415;28;96973;-67
2022/11/13 08:15:32;;;;;;;;;28.40;26.40;;;;;11.58;63.87;100251.91;6182621;28;96725;-67
2022/11/13 08:18:54;;;;;;;;;32.00;28.00;;;;;11.49;64.49;100255.75;6182731;28;97684;-67
2022/11/13 08:22:17;;;;;;;;;28.00;25.40;;;;;11.63;64.08;100247.56;6182964;28;98175;-66
2022/11/13 08:25:39;;;;;;;;;28.50;26.00;;;;;11.60;64.01;100249.84;6162943;28;97798;-66
2022/11/13 08:29:01;;;;;;;;;30.00;25.75;;;;;11.77;63.83;100253.97;6185769;28;97188;-67
2022/11/13 08:32:23;;;;;;;;;31.80;28.00;;;;;11.97;63.61;100251.41;6185059;28;96383;-67
2022/11/13 08:35:53;;;;;;;;;27.40;25.00;;;;;12.02;63.01;100248.94;6185953;28;96370;-67
2022/11/13 08:39:16;;;;;;;;;28.20;23.00;;;;;12.12;63.10;100255.66;6185572;28;96274;-67
2022/11/13 08:42:38;;;;;;;;;25.20;22.80;;;;;12.30;62.94;100247.03;6186444;28;96613;-67
2022/11/13 08:46:00;;;;;;;;;27.00;25.00;;;;;12.26;62.74;100247.63;6167588;28;96726;-69
2022/11/13 08:49:22;;;;;;;;;30.00;26.00;;;;;12.18;63.01;100250.47;6186390;28;96646;-69
2022/11/13 08:52:45;;;;;;;;;28.00;25.00;;;;;12.25;63.04;100248.66;6185853;28;96554;-67
2022/11/13 08:56:08;;;;;;;;;28.75;25.75;;;;;12.30;62.80;100247.03;6185595;28;97512;-67
2022/11/13 08:59:30;;;;;;;;;29.00;26.60;;;;;12.40;62.40;100242.09;6182056;28;97178;-65
2022/11/13 09:02:54;;;;;;;;;33.00;26.00;;;;;12.57;62.40;100251.53;6170456;28;96594;-67
2022/11/13 09:06:15;;;;;;;;;30.60;27.00;;;;;12.72;62.18;100248.66;6183664;28;96341;-66
2022/11/13 09:09:37;;;;;;;;;29.80;27.00;;;;;12.81;62.00;100257.44;6172588;28;96316;-68
2022/11/13 09:13:02;;;;;;;;;25.60;24.40;;;;;12.81;60.74;100257.44;6177234;28;96287;-67
2022/11/13 09:16:25;;;;;;;;;31.00;27.40;;;;;12.87;61.06;100246.66;6189072;28;96452;-67
2022/11/13 09:19:46;;;;;;;;;28.75;24.75;;;;;12.95;60.37;100257.28;6190837;28;97657;-66
2022/11/13 09:23:09;;;;;;;;;31.20;25.60;;;;;13.07;59.85;100256.69;6190285;28;96353;-67
2022/11/13 09:26:31;;;;;;;;;23.20;21.00;;;;;12.90;59.80;100248.13;6188255;28;96314;-67
2022/11/13 09:29:54;;;;;;;;;27.00;24.00;;;;;12.54;60.80;100243.81;6192631;28;97207;-66
2022/11/13 09:33:16;;;;;;;;;30.50;25.75;;;;;12.68;61.01;100243.88;6192248;28;97372;-67
2022/11/13 09:36:38;;;;;;;;;30.00;26.00;;;;;12.67;60.86;100242.19;6186028;28;96842;-68
2022/11/13 09:40:00;;;;;;;;;32.80;29.40;;;;;12.74;61.12;100237.66;6185259;28;97185;-67
2022/11/13 09:43:28;;;;;;;;;29.75;26.75;;;;;12.81;60.76;100243.91;6183054;28;96549;-66
2022/11/13 09:46:55;;;;;;;;;29.75;25.75;;;;;12.87;60.40;100237.69;6185948;28;96735;-67
2022/11/13 09:50:22;;;;;;;;;28.00;25.75;;;;;12.87;60.23;100214.16;6179366;28;97029;-66
2022/11/13 09:53:44;;;;;;;;;32.20;29.00;;;;;12.55;61.22;100229.28;6173408;28;96590;-69
2022/11/13 09:57:17;;;;;;;;;29.00;27.00;;;;;12.69;61.22;100229.31;6175798;28;97011;-66
2022/11/13 10:00:48;;;;;;;;;29.25;27.25;;;;;12.89;60.79;100232.91;6178515;28;96289;-69
2022/11/13 10:04:12;;;;;;;;;30.50;26.50;;;;;13.12;60.16;100219.03;6182354;28;96448;-68
2022/11/13 10:07:42;;;;;;;;;34.80;29.80;;;;;13.19;59.47;100225.31;6188590;28;96779;-67
2022/11/13 10:11:13;;;;;;;;;27.20;24.80;;;;;13.20;59.28;100219.66;6198740;28;96435;-68
2022/11/13 10:14:38;;;;;;;;;23.80;23.80;;;;;13.10;59.41;100218.38;6187724;28;97176;-66
2022/11/13 10:18:05;;;;;;;;;34.80;30.00;;;;;13.18;59.48;100215.50;6186234;28;96527;-67
2022/11/13 10:21:37;;;;;;;;;32.00;29.00;;;;;13.27;59.63;100217.81;6180818;28;96674;-66
2022/11/13 10:25:05;;;;;;;;;28.80;25.60;;;;;13.30;59.30;100219.25;6167061;28;97733;-68
2022/11/13 10:28:27;;;;;;;;;27.00;24.00;;;;;13.18;59.06;100189.28;6195490;28;96952;-68
2022/11/13 10:32:17;;;;;;;;;31.20;26.00;;;;;13.13;60.08;100209.88;6178783;28;99719;-66
2022/11/13 10:35:53;;;;;;;;;32.40;28.40;;;;;13.07;60.03;100203.38;6169972;28;97324;-66
2022/11/13 10:39:17;;;;;;;;;31.60;28.00;;;;;13.22;60.22;100204.06;6181618;28;96888;-66
2022/11/13 10:42:42;;;;;;;;;35.40;30.40;;;;;13.35;60.12;100195.09;6186280;28;97258;-69
2022/11/13 10:46:05;;;;;;;;;28.50;26.00;;;;;13.48;59.82;100195.13;6190737;28;96275;-67
2022/11/13 10:49:28;;;;;;;;;34.40;29.60;;;;;13.47;59.71;100196.16;6183923;28;96851;-67
2022/11/13 10:52:53;;;;;;;;;39.80;32.60;;;;;13.55;59.28;100186.97;6169629;28;96781;-67
2022/11/13 10:56:26;;;;;;;;;32.40;29.40;;;;;13.58;59.18;100190.13;6191781;28;97505;-67
2022/11/13 10:59:48;;;;;;;;;38.00;32.00;;;;;13.63;58.76;100200.31;6169191;28;98406;-65
2022/11/13 11:03:15;;;;;;;;;31.00;25.80;;;;;13.48;59.16;100203.25;6173207;28;96828;-67
2022/11/13 11:06:38;;;;;;;;;32.00;28.00;;;;;13.25;60.17;100203.63;6187714;28;96910;-68
2022/11/13 11:10:27;;;;;;;;;36.00;30.00;;;;;13.51;59.64;100196.56;6179855;28;96898;-67
2022/11/13 11:13:50;;;;;;;;;38.20;31.20;;;;;13.58;59.35;100192.00;6181212;28;96465;-67
2022/11/13 11:17:16;;;;;;;;;33.40;28.80;;;;;13.67;59.23;100190.72;6186246;28;97041;-68
2022/11/13 11:20:45;;;;;;;;;39.40;30.20;;;;;13.80;59.04;100186.13;6187365;28;96301;-66
2022/11/13 11:24:13;;;;;;;;;37.00;32.00;;;;;14.02;58.37;100183.16;6190537;28;97077;-66
2022/11/13 11:27:39;;;;;;;;;35.00;31.80;;;;;14.18;58.19;100177.25;6183114;28;96743;-67
2022/11/13 11:31:12;;;;;;;;;36.40;31.40;;;;;14.19;57.53;100181.66;6166232;28;98453;-67
2022/11/13 11:34:42;;;;;;;;;38.00;31.00;;;;;13.98;57.82;100177.31;6177175;28;96657;-67
2022/11/13 11:38:11;;;;;;;;;40.25;32.75;;;;;14.00;57.98;100164.38;6166888;28;96260;-66
2022/11/13 11:41:40;;;;;;;;;42.20;32.60;;;;;13.98;58.15;100141.22;6166967;28;96901;-67
2022/11/13 11:45:11;;;;;;;;;35.00;31.00;;;;;14.29;57.70;100169.28;6187105;28;96942;-67
2022/11/13 11:48:34;;;;;;;;;35.80;30.20;;;;;14.32;56.90;100160.72;6178357;28;96432;-68
2022/11/13 11:52:11;;;;;;;;;42.00;33.20;;;;;14.43;56.69;100150.28;6181492;28;96496;-67
2022/11/13 11:56:03;;;;;;;;;43.40;35.00;;;;;14.50;56.55;100153.81;6152974;28;96691;-68
2022/11/13 11:59:45;;;;;;;;;39.25;32.00;;;;;14.55;56.41;100148.56;6187864;28;96294;-61
2022/11/13 12:03:49;;;;;;;;;39.00;33.00;;;;;14.61;55.95;100148.50;6175099;28;96290;-63
2022/11/13 12:07:27;;;;;;;;;38.00;31.20;;;;;14.66;55.83;100143.25;6102101;28;96342;-62
2022/11/13 12:10:57;;;;;;;;;43.50;34.00;;;;;14.68;55.82;100143.88;6160056;28;96532;-61
2022/11/13 12:14:29;;;;;;;;;41.20;32.20;;;;;14.61;55.79;100143.06;6165789;28;96391;-61
2022/11/13 12:18:02;;;;;;;;;40.00;30.67;;;;;14.65;56.06;100130.75;6178776;28;97308;-61
2022/11/13 12:21:36;;;;;;;;;37.60;33.00;;;;;14.72;55.64;100134.25;6183909;28;96667;-63
2022/11/13 12:25:13;;;;;;;;;46.00;36.25;;;;;14.79;55.45;100126.06;6184134;28;96423;-63
2022/11/13 12:28:45;;;;;;;;;46.67;36.00;;;;;14.75;55.31;100124.84;6179710;28;96558;-61
2022/11/13 12:32:21;;;;;;;;;37.60;31.60;;;;;14.78;55.33;100123.56;6183901;28;97787;-63
2022/11/13 12:35:46;;;;;;;;;45.00;36.00;;;;;14.74;55.39;100117.75;6183204;28;97461;-61
2022/11/13 12:39:36;;;;;;;;;37.25;32.00;;;;;14.70;55.36;100109.22;6182785;28;96602;-62
2022/11/13 12:43:15;;;;;;;;;38.40;31.60;;;;;14.60;55.25;100114.28;6164329;28;96477;-62
2022/11/13 12:46:39;;;;;;;;;38.67;33.00;;;;;14.50;55.31;100104.94;6190268;28;97046;-61
2022/11/13 12:50:03;;;;;;;;;37.75;32.25;;;;;14.42;55.84;100108.72;6180188;28;96365;-63
2022/11/13 12:53:27;;;;;;;;;39.40;31.00;;;;;14.33;55.88;100102.69;6190786;28;96311;-63
2022/11/13 12:56:50;;;;;;;;;36.00;33.00;;;;;14.19;56.06;100108.41;6180485;28;96289;-62
2022/11/13 13:00:24;;;;;;;;;31.60;27.80;;;;;13.98;56.80;100103.25;6177238;28;96867;-61
2022/11/13 13:04:03;;;;;;;;;41.20;33.80;;;;;13.88;57.22;100096.41;6183990;28;97519;-62
2022/11/13 13:07:46;;;;;;;;;33.40;28.20;;;;;13.66;57.97;100103.16;6183878;28;96273;-61
2022/11/13 13:11:22;;;;;;;;;34.00;30.00;;;;;13.44;59.12;100085.47;6185569;28;98020;-62
2022/11/13 13:15:12;;;;;;;;;31.00;27.25;;;;;13.25;59.76;100079.06;6189932;28;96647;-62
2022/11/13 13:18:36;;;;;;;;;38.67;32.00;;;;;12.95;61.04;100078.63;6157826;28;96574;-62
2022/11/13 13:21:58;;;;;;;;;34.00;30.00;;;;;12.79;62.13;100084.47;6165832;28;98424;-63
2022/11/13 13:25:27;;;;;;;;;42.40;35.00;;;;;12.84;61.75;100087.38;6186393;28;96582;-62
2022/11/13 13:28:51;;;;;;;;;40.40;32.40;;;;;12.82;62.01;100081.31;6163529;28;96686;-62
2022/11/13 13:32:21;;;;;;;;;42.00;33.00;;;;;12.71;62.60;100079.22;6178484;28;96575;-62
2022/11/13 13:35:49;;;;;;;;;46.00;36.00;;;;;12.63;63.08;100084.84;6180728;28;96611;-62
2022/11/13 13:39:25;;;;;;;;;34.00;30.00;;;;;12.75;62.22;100083.22;6160911;28;99421;-61
2022/11/13 13:43:12;;;;;;;;;36.00;30.25;;;;;12.92;62.23;100068.22;6170868;28;96858;-60
2022/11/13 13:46:35;;;;;;;;;34.00;30.40;;;;;12.95;61.73;100062.38;6192449;28;96287;-61
2022/11/13 13:49:58;;;;;;;;;35.80;30.80;;;;;13.16;61.51;100065.94;6194850;28;96777;-61
2022/11/13 13:53:25;;;;;;;;;41.25;32.00;;;;;13.28;60.94;100066.97;6174948;28;96268;-63
2022/11/13 13:56:47;;;;;;;;;36.40;30.40;;;;;13.30;61.03;100065.72;6186011;28;96977;-62
2022/11/13 14:00:13;;;;;;;;;34.20;28.00;;;;;13.34;60.43;100063.44;6187693;28;96391;-62
2022/11/13 14:03:35;;;;;;;;;37.60;32.60;;;;;13.34;60.56;100061.53;6187443;28;96783;-61
2022/11/13 14:07:00;;;;;;;;;34.50;28.75;;;;;13.12;61.14;100067.41;6187700;28;96537;-61
2022/11/13 14:10:24;;;;;;;;;34.25;30.00;;;;;13.15;60.92;100058.84;6182717;28;97187;-62
2022/11/13 14:13:46;;;;;;;;;34.20;29.00;;;;;13.22;60.75;100057.81;6187160;28;97033;-61
2022/11/13 14:17:10;;;;;;;;;35.25;31.25;;;;;13.23;60.54;100055.94;6187301;28;97049;-63
2022/11/13 14:20:41;;;;;;;;;35.75;30.00;;;;;13.24;60.69;100044.06;6186663;28;97542;-60
2022/11/13 14:24:10;;;;;;;;;30.00;26.00;;;;;13.25;60.81;100046.56;6183546;28;96325;-61
2022/11/13 14:27:32;;;;;;;;;32.00;29.00;;;;;13.29;60.54;100044.28;6182230;28;96466;-63
2022/11/13 14:30:57;;;;;;;;;31.60;28.60;;;;;13.12;60.87;100038.47;6154506;28;97563;-61
2022/11/13 14:34:22;;;;;;;;;39.00;32.25;;;;;13.02;60.99;100038.84;6186524;28;96525;-62
2022/11/13 14:37:47;;;;;;;;;32.80;29.80;;;;;12.94;61.11;100028.25;6183435;28;96283;-62
2022/11/13 14:41:22;;;;;;;;;32.00;28.80;;;;;12.97;61.63;100035.94;6184238;28;97053;-62
2022/11/13 14:44:44;;;;;;;;;39.00;33.00;;;;;12.95;61.52;100038.00;6184340;28;96402;-62
2022/11/13 14:48:19;;;;;;;;;31.50;29.00;;;;;12.89;61.81;100032.63;6182811;28;96866;-61
2022/11/13 14:51:41;;;;;;;;;37.00;31.00;;;;;12.95;61.77;100034.50;6183051;28;96780;-61
2022/11/13 14:55:05;;;;;;;;;38.75;33.25;;;;;12.98;61.76;100028.66;6162566;28;96723;-60
2022/11/13 14:58:42;;;;;;;;;32.75;29.75;;;;;13.06;61.64;100033.00;6186618;28;96690;-61
2022/11/13 15:02:05;;;;;;;;;34.80;30.00;;;;;13.04;61.60;100025.13;6181688;28;96409;-62
2022/11/13 15:05:27;;;;;;;;;30.75;27.00;;;;;13.07;61.30;100021.97;6186295;28;96672;-61
2022/11/13 15:08:54;;;;;;;;;32.00;28.40;;;;;12.97;61.83;100029.69;6187087;28;97065;-61
2022/11/13 15:12:16;;;;;;;;;37.60;31.60;;;;;12.97;62.13;100026.97;6179586;28;97304;-61
2022/11/13 15:15:39;;;;;;;;;32.60;27.60;;;;;13.02;61.83;100032.59;6186704;28;97170;-61
2022/11/13 15:19:05;;;;;;;;;33.50;30.00;;;;;13.07;61.73;100021.16;6185409;28;96472;-61
2022/11/13 15:22:27;;;;;;;;;32.40;28.80;;;;;13.12;61.54;100030.34;6186362;28;97209;-61
2022/11/13 15:25:49;;;;;;;;;30.00;26.50;;;;;13.16;61.64;100026.16;6168724;28;96668;-61
2022/11/13 15:29:11;;;;;;;;;31.00;29.40;;;;;13.18;61.27;100026.78;6187270;28;96285;-60
2022/11/13 15:32:34;;;;;;;;;33.60;29.80;;;;;13.14;61.42;100027.44;6194785;28;96275;-64